createdAt,value
2018-03-22T00:01:40.991Z,3.20
2018-03-22T00:04:11.784Z,3.30
2018-03-22T00:06:42.470Z,3.20
2018-03-22T00:09:13.790Z,3.20
2018-03-22T00:11:44.295Z,3.20
2018-03-22T00:14:15.750Z,3.30
2018-03-22T00:16:46.243Z,3.20
2018-03-22T00:19:16.730Z,3.30
2018-03-22T00:21:47.381Z,3.20
2018-03-22T00:24:17.770Z,3.20
2018-03-22T00:26:48.242Z,3.20
2018-03-22T00:29:18.923Z,3.00
2018-03-22T00:31:49.637Z,3.20
2018-03-22T00:34:21.237Z,3.10
2018-03-22T00:36:51.945Z,3.10
2018-03-22T00:39:22.251Z,3.20
2018-03-22T00:41:53.890Z,3.20
2018-03-22T00:44:24.206Z,3.20
2018-03-22T00:46:55.228Z,3.20
2018-03-22T00:49:26.063Z,3.20
2018-03-22T00:51:56.403Z,3.20
2018-03-22T00:54:26.651Z,3.20
2018-03-22T00:56:58.121Z,3.10
2018-03-22T00:59:28.549Z,3.10
2018-03-22T01:01:58.854Z,3.10
2018-03-22T01:04:30.027Z,3.10
2018-03-22T01:07:00.725Z,3.10
2018-03-22T01:09:31.792Z,3.10
2018-03-22T01:12:02.215Z,3.00
2018-03-22T01:14:32.800Z,3.30
2018-03-22T01:17:03.142Z,3.00
2018-03-22T01:19:34.468Z,3.00
2018-03-22T01:22:04.924Z,2.90
2018-03-22T01:24:36.178Z,2.90
2018-03-22T01:27:06.676Z,2.90
2018-03-22T01:29:36.910Z,2.80
2018-03-22T01:32:07.154Z,2.80
2018-03-22T01:34:37.435Z,2.70
2018-03-22T01:37:07.930Z,2.40
2018-03-22T01:39:38.570Z,2.50
2018-03-22T01:42:08.790Z,2.50
2018-03-22T01:44:39.039Z,2.50
2018-03-22T01:47:09.589Z,2.30
2018-03-22T01:49:39.830Z,2.20
2018-03-22T01:52:10.059Z,2.10
2018-03-22T01:54:41.415Z,2.00
2018-03-22T01:57:11.899Z,1.90
2018-03-22T01:59:43.146Z,1.70
2018-03-22T02:02:14.171Z,1.70
2018-03-22T02:04:45.180Z,1.60
2018-03-22T02:07:15.651Z,1.60
2018-03-22T02:09:46.142Z,1.60
2018-03-22T02:12:16.436Z,1.40
2018-03-22T02:14:46.902Z,1.40
2018-03-22T02:17:17.263Z,1.50
2018-03-22T02:19:47.491Z,1.40
2018-03-22T02:22:17.983Z,1.40
2018-03-22T02:24:48.991Z,1.30
2018-03-22T02:27:19.231Z,1.30
2018-03-22T02:29:50.578Z,1.40
2018-03-22T02:32:21.674Z,1.40
2018-03-22T02:34:52.471Z,1.40
2018-03-22T02:37:23.742Z,1.50
2018-03-22T02:39:54.005Z,1.50
2018-03-22T02:42:24.331Z,1.50
2018-03-22T02:44:54.903Z,1.50
2018-03-22T02:47:25.475Z,1.60
2018-03-22T02:49:55.945Z,1.60
2018-03-22T02:52:26.463Z,1.60
2018-03-22T02:54:57.496Z,1.70
2018-03-22T02:57:27.718Z,1.60
2018-03-22T02:59:58.282Z,1.60
2018-03-22T03:02:28.691Z,1.60
2018-03-22T03:04:59.463Z,1.70
2018-03-22T03:07:30.024Z,1.70
2018-03-22T03:10:00.681Z,2.20
2018-03-22T03:12:30.926Z,1.60
2018-03-22T03:15:01.566Z,1.60
2018-03-22T03:17:31.881Z,1.60
2018-03-22T03:20:02.222Z,1.70
2018-03-22T03:22:32.691Z,1.80
2018-03-22T03:25:02.995Z,1.80
2018-03-22T03:27:33.336Z,1.80
2018-03-22T03:30:04.211Z,1.80
2018-03-22T03:32:34.524Z,1.70
2018-03-22T03:35:05.122Z,1.70
2018-03-22T03:37:35.499Z,1.80
2018-03-22T03:40:05.930Z,1.80
2018-03-22T03:42:36.155Z,1.80
2018-03-22T03:45:06.734Z,2.20
2018-03-22T03:47:37.739Z,1.80
2018-03-22T03:50:09.070Z,1.80
2018-03-22T03:52:39.580Z,1.80
2018-03-22T03:55:10.087Z,1.70
2018-03-22T03:57:40.307Z,1.70
2018-03-22T04:00:12.362Z,1.70
2018-03-22T04:02:42.950Z,1.50
2018-03-22T04:05:13.189Z,1.50
2018-03-22T04:07:43.466Z,1.50
2018-03-22T04:10:13.719Z,1.50
2018-03-22T04:12:44.223Z,1.50
2018-03-22T04:15:14.450Z,1.50
2018-03-22T04:17:44.673Z,1.60
2018-03-22T04:20:16.946Z,1.60
2018-03-22T04:22:47.134Z,1.60
2018-03-22T04:25:17.398Z,1.60
2018-03-22T04:27:47.979Z,1.70
2018-03-22T04:30:18.494Z,1.70
2018-03-22T04:32:49.483Z,1.90
2018-03-22T04:35:19.982Z,1.80
2018-03-22T04:37:50.254Z,1.90
2018-03-22T04:40:20.910Z,1.90
2018-03-22T04:42:51.154Z,1.90
2018-03-22T04:45:21.377Z,1.90
2018-03-22T04:47:51.898Z,2.00
2018-03-22T04:50:22.371Z,2.00
2018-03-22T04:52:52.648Z,2.00
2018-03-22T04:55:23.284Z,2.00
2018-03-22T04:57:53.567Z,2.10
2018-03-22T05:00:23.799Z,2.10
2018-03-22T05:02:54.583Z,2.10
2018-03-22T05:05:24.823Z,2.10
2018-03-22T05:07:56.150Z,2.20
2018-03-22T05:10:26.350Z,2.20
2018-03-22T05:12:56.570Z,2.30
2018-03-22T05:15:26.875Z,2.30
2018-03-22T05:17:57.338Z,2.30
2018-03-22T05:20:27.907Z,2.30
2018-03-22T05:22:58.210Z,2.40
2018-03-22T05:25:28.546Z,2.40
2018-03-22T05:27:59.058Z,2.30
2018-03-22T05:30:30.458Z,2.40
2018-03-22T05:33:01.053Z,2.40
2018-03-22T05:35:31.862Z,2.50
2018-03-22T05:38:02.168Z,2.40
2018-03-22T05:40:33.754Z,2.50
2018-03-22T05:43:04.231Z,2.40
2018-03-22T05:45:34.642Z,2.50
2018-03-22T05:48:05.191Z,2.50
2018-03-22T05:50:35.425Z,2.50
2018-03-22T05:53:06.011Z,2.60
2018-03-22T05:55:36.254Z,2.60
2018-03-22T05:58:06.859Z,2.60
2018-03-22T06:00:37.146Z,2.60
2018-03-22T06:03:07.511Z,2.60
2018-03-22T06:05:38.059Z,2.60
2018-03-22T06:08:08.370Z,2.60
2018-03-22T06:10:38.847Z,2.60
2018-03-22T06:13:09.214Z,2.70
2018-03-22T06:15:39.891Z,2.60
2018-03-22T06:18:10.136Z,2.70
2018-03-22T06:20:41.172Z,2.70
2018-03-22T06:23:11.854Z,2.70
2018-03-22T06:25:42.369Z,2.80
2018-03-22T06:28:12.719Z,2.80
2018-03-22T06:30:42.953Z,2.90
2018-03-22T06:33:13.243Z,2.90
2018-03-22T06:35:43.535Z,2.90
2018-03-22T06:38:14.639Z,3.00
2018-03-22T06:40:45.412Z,3.00
2018-03-22T06:43:15.664Z,3.10
2018-03-22T06:45:45.974Z,3.00
2018-03-22T06:48:17.439Z,3.10
2018-03-22T06:50:47.812Z,3.10
2018-03-22T06:53:18.658Z,3.20
2018-03-22T06:55:49.286Z,3.20
2018-03-22T06:58:20.646Z,3.30
2018-03-22T07:00:51.350Z,3.20
2018-03-22T07:03:25.759Z,3.30
2018-03-22T07:05:56.694Z,3.30
2018-03-22T07:08:27.353Z,3.30
2018-03-22T07:13:59.195Z,3.50
2018-03-22T07:16:31.469Z,3.60
2018-03-22T07:19:02.293Z,3.60
2018-03-22T07:21:33.398Z,3.60
2018-03-22T07:24:04.822Z,3.70
2018-03-22T07:26:51.460Z,3.70
2018-03-22T07:29:22.499Z,3.80
2018-03-22T07:31:53.360Z,3.80
2018-03-22T07:34:24.732Z,3.80
2018-03-22T07:37:00.148Z,3.90
2018-03-22T07:39:31.154Z,4.00
2018-03-22T07:42:02.518Z,4.00
2018-03-22T07:44:38.448Z,4.10
2018-03-22T07:47:11.047Z,4.10
2018-03-22T07:49:41.321Z,4.10
2018-03-22T07:52:12.754Z,4.00
2018-03-22T07:54:43.866Z,4.10
2018-03-22T07:57:16.211Z,4.00
2018-03-22T07:59:46.846Z,4.00
2018-03-22T08:02:17.107Z,4.00
2018-03-22T08:04:47.591Z,4.10
2018-03-22T08:07:18.862Z,4.10
2018-03-22T08:09:49.087Z,4.10
2018-03-22T08:12:19.324Z,4.20
2018-03-22T08:14:50.388Z,4.20
2018-03-22T08:17:20.666Z,4.30
2018-03-22T08:19:50.947Z,4.40
2018-03-22T08:22:37.115Z,4.40
2018-03-22T08:25:08.977Z,4.40
2018-03-22T08:27:40.239Z,4.50
2018-03-22T08:30:12.688Z,4.60
2018-03-22T08:32:43.258Z,4.60
2018-03-22T08:35:14.342Z,4.50
2018-03-22T08:37:44.577Z,4.80
2018-03-22T08:40:14.846Z,4.60
2018-03-22T08:42:46.318Z,4.60
2018-03-22T08:45:17.366Z,4.60
2018-03-22T08:47:47.934Z,4.70
2018-03-22T08:50:18.163Z,4.70
2018-03-22T08:52:49.774Z,4.80
2018-03-22T08:55:20.474Z,4.90
2018-03-22T08:57:50.819Z,4.90
2018-03-22T09:00:21.158Z,4.90
2018-03-22T09:02:52.150Z,4.90
2018-03-22T09:05:23.171Z,4.90
2018-03-22T09:07:53.408Z,4.90
2018-03-22T09:10:24.070Z,4.90
2018-03-22T09:12:54.427Z,4.80
2018-03-22T09:15:26.086Z,5.00
2018-03-22T09:17:58.485Z,4.90
2018-03-22T09:20:30.120Z,5.00
2018-03-22T09:23:00.667Z,5.00
2018-03-22T09:25:31.209Z,5.10
2018-03-22T09:28:07.293Z,5.20
2018-03-22T09:30:39.457Z,5.30
2018-03-22T09:33:09.859Z,5.30
2018-03-22T09:35:40.141Z,5.30
2018-03-22T09:38:10.631Z,5.40
2018-03-22T09:40:40.917Z,5.50
2018-03-22T09:43:11.491Z,5.40
2018-03-22T09:45:42.022Z,5.60
2018-03-22T09:48:12.263Z,5.70
2018-03-22T09:50:43.017Z,5.70
2018-03-22T09:53:13.646Z,5.60
2018-03-22T09:55:43.930Z,5.60
2018-03-22T09:58:14.448Z,5.70
2018-03-22T10:00:44.723Z,5.80
2018-03-22T10:03:14.987Z,5.90
2018-03-22T10:05:45.518Z,5.80
2018-03-22T10:08:15.714Z,5.80
2018-03-22T10:10:46.718Z,5.90
2018-03-22T10:13:17.266Z,5.90
2018-03-22T10:15:48.550Z,6.00
2018-03-22T10:18:18.760Z,6.10
2018-03-22T10:20:49.249Z,6.10
2018-03-22T10:23:19.453Z,6.10
2018-03-22T10:25:49.691Z,6.20
2018-03-22T10:28:20.734Z,6.20
2018-03-22T10:30:51.848Z,6.10
2018-03-22T10:33:22.071Z,6.10
2018-03-22T10:35:52.648Z,6.10
2018-03-22T10:38:23.634Z,6.10
2018-03-22T10:40:53.923Z,6.10
2018-03-22T10:43:25.289Z,6.10
2018-03-22T10:45:55.590Z,6.10
2018-03-22T10:48:25.852Z,6.40
2018-03-22T10:50:57.158Z,6.70
2018-03-22T10:53:28.374Z,6.60
2018-03-22T10:55:59.708Z,6.40
2018-03-22T10:58:29.954Z,6.40
2018-03-22T11:01:05.121Z,6.30
2018-03-22T11:03:40.544Z,6.20
2018-03-22T11:06:11.596Z,6.60
2018-03-22T11:08:42.082Z,6.60
2018-03-22T11:11:12.348Z,6.80
2018-03-22T11:13:43.592Z,6.50
2018-03-22T11:16:14.173Z,6.50
2018-03-22T11:18:44.984Z,6.90
2018-03-22T11:21:15.284Z,6.70
2018-03-22T11:23:45.735Z,6.80
2018-03-22T11:26:15.965Z,7.00
2018-03-22T11:28:46.194Z,7.20
2018-03-22T11:31:16.818Z,7.40
2018-03-22T11:33:47.014Z,7.00
2018-03-22T11:36:17.326Z,6.80
2018-03-22T11:38:47.823Z,6.90
2018-03-22T11:41:18.856Z,6.90
2018-03-22T11:43:49.338Z,6.90
2018-03-22T11:46:19.842Z,6.60
2018-03-22T11:48:50.843Z,6.60
2018-03-22T11:51:21.138Z,6.60
2018-03-22T11:53:51.779Z,6.70
2018-03-22T11:56:21.998Z,6.60
2018-03-22T11:58:52.246Z,6.60
2018-03-22T12:01:22.906Z,6.50
2018-03-22T12:03:53.238Z,6.60
2018-03-22T12:06:23.566Z,6.70
2018-03-22T12:08:54.087Z,6.40
2018-03-22T12:11:24.337Z,6.50
2018-03-22T12:13:54.826Z,6.30
2018-03-22T12:16:25.335Z,6.40
2018-03-22T12:18:56.439Z,6.50
2018-03-22T12:21:27.649Z,6.50
2018-03-22T12:23:58.348Z,6.50
2018-03-22T12:26:29.614Z,6.80
2018-03-22T12:28:59.914Z,6.80
2018-03-22T12:31:30.891Z,6.70
2018-03-22T12:34:01.378Z,6.70
2018-03-22T12:36:31.578Z,6.70
2018-03-22T12:39:03.430Z,6.50
2018-03-22T12:41:33.987Z,6.60
2018-03-22T12:44:04.595Z,6.70
2018-03-22T12:46:34.938Z,6.80
2018-03-22T12:49:05.548Z,6.60
2018-03-22T12:51:35.895Z,6.50
2018-03-22T12:54:06.162Z,6.10
2018-03-22T12:56:36.934Z,6.10
2018-03-22T12:59:07.163Z,6.20
2018-03-22T13:01:37.388Z,6.20
2018-03-22T13:04:08.006Z,6.20
2018-03-22T13:06:38.298Z,6.20
2018-03-22T13:09:08.535Z,6.30
2018-03-22T13:11:39.046Z,6.30
2018-03-22T13:14:09.285Z,6.40
2018-03-22T13:16:39.542Z,6.50
2018-03-22T13:19:10.055Z,6.60
2018-03-22T13:21:40.258Z,6.60
2018-03-22T13:24:11.365Z,6.70
2018-03-22T13:26:43.050Z,6.70
2018-03-22T13:29:13.410Z,6.70
2018-03-22T13:31:43.954Z,6.60
2018-03-22T13:34:14.246Z,6.40
2018-03-22T13:36:44.751Z,6.40
2018-03-22T13:39:15.024Z,6.30
2018-03-22T13:41:46.010Z,6.60
2018-03-22T13:44:17.569Z,6.60
2018-03-22T13:46:47.814Z,6.30
2018-03-22T13:49:19.001Z,6.40
2018-03-22T13:51:49.474Z,6.30
2018-03-22T13:54:19.738Z,6.40
2018-03-22T13:56:50.278Z,6.50
2018-03-22T13:59:20.796Z,6.50
2018-03-22T14:01:51.115Z,6.30
2018-03-22T14:04:21.587Z,6.20
2018-03-22T14:06:52.197Z,6.20
2018-03-22T14:09:22.452Z,6.10
2018-03-22T14:11:52.682Z,6.20
2018-03-22T14:14:24.142Z,6.20
2018-03-22T14:16:54.658Z,6.20
2018-03-22T14:19:24.834Z,6.20
2018-03-22T14:21:55.464Z,6.00
2018-03-22T14:24:25.822Z,5.90
2018-03-22T14:26:56.014Z,5.90
2018-03-22T14:29:26.509Z,5.90
2018-03-22T14:31:57.580Z,5.70
2018-03-22T14:34:27.799Z,5.70
2018-03-22T14:36:58.523Z,5.80
2018-03-22T14:39:28.839Z,5.60
2018-03-22T14:41:59.174Z,5.50
2018-03-22T14:44:29.716Z,5.50
2018-03-22T14:47:00.250Z,5.40
2018-03-22T14:49:31.156Z,5.40
2018-03-22T14:52:01.679Z,5.30
2018-03-22T14:54:32.014Z,5.20
2018-03-22T14:57:02.235Z,5.30
2018-03-22T14:59:32.826Z,5.30
2018-03-22T15:02:03.898Z,5.10
2018-03-22T15:04:35.208Z,5.10
2018-03-22T15:07:05.689Z,5.20
2018-03-22T15:09:36.010Z,5.30
2018-03-22T15:12:06.583Z,5.30
2018-03-22T15:14:37.402Z,5.40
2018-03-22T15:17:07.897Z,5.50
2018-03-22T15:19:38.113Z,5.40
2018-03-22T15:22:08.775Z,5.40
2018-03-22T15:24:39.083Z,5.70
2018-03-22T15:27:09.286Z,5.80
2018-03-22T15:29:39.774Z,5.50
2018-03-22T15:32:09.971Z,5.50
2018-03-22T15:34:40.419Z,5.50
2018-03-22T15:37:10.900Z,5.80
2018-03-22T15:39:41.192Z,5.50
2018-03-22T15:42:11.456Z,5.50
2018-03-22T15:44:42.105Z,5.50
2018-03-22T15:47:12.611Z,5.40
2018-03-22T15:49:42.834Z,5.40
2018-03-22T15:52:14.012Z,5.40
2018-03-22T15:54:45.186Z,5.40
2018-03-22T15:57:15.530Z,5.40
2018-03-22T15:59:46.318Z,5.40
2018-03-22T16:02:17.578Z,5.40
2018-03-22T16:04:49.090Z,5.30
2018-03-22T16:07:19.386Z,5.30
2018-03-22T16:09:49.661Z,5.30
2018-03-22T16:12:20.894Z,5.40
2018-03-22T16:14:51.887Z,5.40
2018-03-22T16:17:22.393Z,5.40
2018-03-22T16:19:52.919Z,5.50
2018-03-22T16:22:23.790Z,5.60
2018-03-22T16:24:54.136Z,5.50
2018-03-22T16:27:25.438Z,5.10
2018-03-22T16:29:55.794Z,5.30
2018-03-22T16:32:28.074Z,5.30
2018-03-22T16:34:58.594Z,5.20
2018-03-22T16:37:31.601Z,5.10
2018-03-22T16:40:02.985Z,5.00
2018-03-22T16:42:33.359Z,5.20
2018-03-22T16:45:06.695Z,5.20
2018-03-22T16:47:37.841Z,5.20
2018-03-22T16:50:09.841Z,5.30
2018-03-22T16:52:40.655Z,5.20
2018-03-22T16:55:27.272Z,5.30
2018-03-22T16:59:13.022Z,5.30
2018-03-22T17:01:45.318Z,5.20
2018-03-22T17:04:17.408Z,5.20
2018-03-22T17:06:48.659Z,5.10
2018-03-22T17:09:26.751Z,5.10
2018-03-22T17:11:57.606Z,5.20
2018-03-22T17:14:29.410Z,5.00
2018-03-22T17:16:59.635Z,5.00
2018-03-22T17:19:32.119Z,4.80
2018-03-22T17:22:04.115Z,4.80
2018-03-22T17:24:34.438Z,4.90
2018-03-22T17:27:04.878Z,4.90
2018-03-22T17:29:36.310Z,4.80
2018-03-22T17:32:06.542Z,5.00
2018-03-22T17:34:36.990Z,4.80
2018-03-22T17:37:08.027Z,4.70
2018-03-22T17:39:39.366Z,4.80
2018-03-22T17:42:09.091Z,4.70
2018-03-22T17:44:40.062Z,4.70
2018-03-22T17:47:10.637Z,4.70
2018-03-22T17:49:44.705Z,4.70
2018-03-22T17:52:16.853Z,4.50
2018-03-22T17:54:47.540Z,4.50
2018-03-22T17:57:20.258Z,4.40
2018-03-22T17:59:52.025Z,4.30
2018-03-22T18:02:22.389Z,4.30
2018-03-22T18:04:53.452Z,4.40
2018-03-22T18:07:24.010Z,4.30
2018-03-22T18:09:54.359Z,4.20
2018-03-22T18:12:25.115Z,4.30
2018-03-22T18:14:56.293Z,4.30
2018-03-22T18:17:26.782Z,4.40
2018-03-22T18:20:22.420Z,4.40
2018-03-22T18:22:54.011Z,4.50
2018-03-22T18:25:24.382Z,4.50
2018-03-22T18:27:55.305Z,4.50
2018-03-22T18:30:29.875Z,4.40
2018-03-22T18:33:22.226Z,4.40
2018-03-22T18:35:53.052Z,4.30
2018-03-22T18:38:48.202Z,4.20
2018-03-22T18:41:18.819Z,4.30
2018-03-22T18:43:50.006Z,4.20
2018-03-22T18:46:20.859Z,4.30
2018-03-22T18:48:53.162Z,4.20
2018-03-22T18:51:23.517Z,4.20
2018-03-22T18:53:53.788Z,4.20
2018-03-22T18:56:24.535Z,4.30
2018-03-22T18:58:54.961Z,4.20
2018-03-22T19:01:25.674Z,4.30
2018-03-22T19:03:57.569Z,4.20
2018-03-22T19:06:28.098Z,4.20
2018-03-22T19:09:04.779Z,4.20
2018-03-22T19:11:39.237Z,4.20
2018-03-22T19:14:14.889Z,4.20
2018-03-22T19:16:46.215Z,4.10
2018-03-22T19:19:17.676Z,4.10
2018-03-22T19:21:49.696Z,4.00
2018-03-22T19:24:20.202Z,4.00
2018-03-22T19:26:50.519Z,4.10
2018-03-22T19:29:25.052Z,4.20
2018-03-22T19:31:55.307Z,4.00
2018-03-22T19:34:25.822Z,4.00
2018-03-22T19:36:57.966Z,3.90
2018-03-22T19:39:29.828Z,4.20
2018-03-22T19:42:00.597Z,4.00
2018-03-22T19:44:31.744Z,3.90
2018-03-22T19:47:02.270Z,3.80
2018-03-22T19:49:32.998Z,3.80
2018-03-22T19:52:03.516Z,3.90
2018-03-22T19:54:34.386Z,3.80
2018-03-22T19:57:04.917Z,3.90
2018-03-22T19:59:36.535Z,3.80
2018-03-22T20:02:06.770Z,3.80
2018-03-22T20:04:37.474Z,3.90
2018-03-22T20:07:07.671Z,3.90
2018-03-22T20:09:37.971Z,3.90
2018-03-22T20:12:08.803Z,3.80
2018-03-22T20:14:41.121Z,3.80
2018-03-22T20:17:11.395Z,3.80
2018-03-22T20:19:43.389Z,3.80
2018-03-22T20:22:13.758Z,3.80
2018-03-22T20:24:44.660Z,3.80
2018-03-22T20:27:14.938Z,3.80
2018-03-22T20:29:45.198Z,3.80
2018-03-22T20:32:15.790Z,3.70
2018-03-22T20:34:46.824Z,3.80
2018-03-22T20:37:17.863Z,3.70
2018-03-22T20:39:49.827Z,3.80
2018-03-22T20:42:20.142Z,3.80
2018-03-22T20:44:51.403Z,3.70
2018-03-22T20:47:22.776Z,3.80
2018-03-22T20:49:53.251Z,3.80
2018-03-22T20:52:23.629Z,3.70
2018-03-22T20:54:54.108Z,3.70
2018-03-22T20:57:24.342Z,3.70
2018-03-22T20:59:55.371Z,3.50
2018-03-22T21:02:26.041Z,3.50
2018-03-22T21:04:56.263Z,3.60
2018-03-22T21:07:26.508Z,3.50
2018-03-22T21:09:57.026Z,3.60
2018-03-22T21:12:27.343Z,3.60
2018-03-22T21:14:58.011Z,3.60
2018-03-22T21:17:28.606Z,3.70
2018-03-22T21:19:58.922Z,3.70
2018-03-22T21:22:29.546Z,3.80
2018-03-22T21:24:59.789Z,3.70
2018-03-22T21:27:30.269Z,3.70
2018-03-22T21:30:01.585Z,3.70
2018-03-22T21:32:31.834Z,3.60
2018-03-22T21:35:03.238Z,3.70
2018-03-22T21:37:33.987Z,3.70
2018-03-22T21:40:04.958Z,3.70
2018-03-22T21:42:35.301Z,3.60
2018-03-22T21:45:05.925Z,3.60
2018-03-22T21:47:36.128Z,3.70
2018-03-22T21:50:07.174Z,3.70
2018-03-22T21:52:46.636Z,3.60
2018-03-22T21:55:16.902Z,3.50
2018-03-22T21:57:47.586Z,3.50
2018-03-22T22:00:17.849Z,3.40
2018-03-22T22:02:48.122Z,3.40
2018-03-22T22:05:19.668Z,3.50
2018-03-22T22:07:50.757Z,3.40
2018-03-22T22:10:21.015Z,3.40
2018-03-22T22:12:51.608Z,3.50
2018-03-22T22:15:21.948Z,3.70
2018-03-22T22:17:52.230Z,3.60
2018-03-22T22:20:22.762Z,3.60
2018-03-22T22:22:52.954Z,3.50
2018-03-22T22:25:24.029Z,3.40
2018-03-22T22:27:55.427Z,3.40
2018-03-22T22:30:26.519Z,3.40
2018-03-22T22:32:57.912Z,3.40
2018-03-22T22:35:28.724Z,3.30
2018-03-22T22:37:59.072Z,3.40
2018-03-22T22:40:29.770Z,3.30
2018-03-22T22:43:00.010Z,3.20
2018-03-22T22:45:31.010Z,3.20
2018-03-22T22:48:01.540Z,3.20
2018-03-22T22:50:31.831Z,3.20
2018-03-22T22:53:02.100Z,3.30
2018-03-22T22:55:32.687Z,3.20
2018-03-22T22:58:02.950Z,3.20
2018-03-22T23:00:33.412Z,3.10
2018-03-22T23:03:03.951Z,3.20
2018-03-22T23:05:34.280Z,3.20
2018-03-22T23:08:05.252Z,3.20
2018-03-22T23:10:35.526Z,3.20
2018-03-22T23:13:06.073Z,3.10
2018-03-22T23:15:37.631Z,3.30
2018-03-22T23:18:08.628Z,3.20
2018-03-22T23:20:39.665Z,3.30
2018-03-22T23:23:10.143Z,3.30
2018-03-22T23:25:40.856Z,3.20
2018-03-22T23:28:13.076Z,3.10
2018-03-22T23:30:44.189Z,3.10
2018-03-22T23:33:15.415Z,3.00
2018-03-22T23:35:46.624Z,3.00
2018-03-22T23:38:17.736Z,3.00
2018-03-22T23:40:48.563Z,3.10
2018-03-22T23:43:19.430Z,3.20
2018-03-22T23:45:49.754Z,3.10
2018-03-22T23:48:20.261Z,3.10
2018-03-22T23:50:50.643Z,3.00
2018-03-22T23:53:22.646Z,2.90
2018-03-22T23:55:54.083Z,2.90
2018-03-22T23:58:25.317Z,3.00
